Time;durP1;ratioP1;P1;durP2;ratioP2;P2;SDS_P1;SDS_P2;PMS_P1;PMS_P2;Temp;Humidity;BMP_temperature;BMP_pressure;BME280_temperature;BME280_humidity;BME280_pressure;Samples;Min_cycle;Max_cycle;Signal;HPM_P1;HPM_P2
2023/12/20 00:01:54;;;;;;;9.15;0.80;;;5.90;99.90;;;;;;5066257;28;20102;-78
2023/12/20 00:04:20;;;;;;;6.35;0.45;;;;;;;;;;5084150;28;20123;-79
2023/12/20 00:06:46;;;;;;;13.65;0.57;;;5.90;99.90;;;;;;5065103;28;20027;-79
2023/12/20 00:09:11;;;;;;;11.68;0.90;;;5.80;99.90;;;;;;5065705;28;20031;-79
2023/12/20 00:11:37;;;;;;;7.38;0.30;;;5.60;99.90;;;;;;5083288;28;20052;-79
2023/12/20 00:14:02;;;;;;;8.55;0.10;;;5.80;99.90;;;;;;5064962;28;20506;-80
2023/12/20 00:16:28;;;;;;;4.68;0.17;;;5.70;99.90;;;;;;5064315;28;20031;-79
2023/12/20 00:18:53;;;;;;;10.65;0.98;;;5.70;99.90;;;;;;5081522;28;20021;-79
2023/12/20 00:21:19;;;;;;;4.43;0.73;;;5.70;99.90;;;;;;5081619;28;20029;-79
2023/12/20 00:23:45;;;;;;;10.77;0.85;;;5.70;99.90;;;;;;5081560;28;20029;-80
2023/12/20 00:26:11;;;;;;;7.32;0.32;;;5.70;99.90;;;;;;5081035;28;20495;-79
2023/12/20 00:28:36;;;;;;;4.00;0.47;;;5.70;99.90;;;;;;5063529;28;20059;-79
2023/12/20 00:31:02;;;;;;;10.40;0.63;;;5.60;99.90;;;;;;5081435;28;20495;-79
2023/12/20 00:33:27;;;;;;;8.75;0.40;;;5.70;99.90;;;;;;5063470;28;20021;-79
2023/12/20 00:35:53;;;;;;;14.52;0.82;;;5.70;99.90;;;;;;5081371;28;20016;-79
2023/12/20 00:38:19;;;;;;;6.55;0.45;;;5.70;99.90;;;;;;5081128;28;20017;-79
2023/12/20 00:40:47;;;;;;;14.55;0.30;;;5.70;99.90;;;;;;5061553;28;20364;-79
2023/12/20 00:43:13;;;;;;;6.70;0.67;;;5.70;99.90;;;;;;5062038;28;20403;-79
2023/12/20 00:45:39;;;;;;;3.42;0.10;;;5.70;99.90;;;;;;5062961;28;20263;-79
2023/12/20 00:48:05;;;;;;;6.55;0.25;;;5.70;99.90;;;;;;5063371;28;20024;-78
2023/12/20 00:50:31;;;;;;;9.45;0.75;;;5.70;99.90;;;;;;5062872;28;20031;-79
2023/12/20 00:52:56;;;;;;;10.23;1.15;;;5.50;99.90;;;;;;5062717;28;20016;-80
2023/12/20 00:55:22;;;;;;;5.05;0.50;;;;;;;;;;5063970;28;20494;-80
2023/12/20 00:57:48;;;;;;;8.52;0.32;;;5.60;99.90;;;;;;5080911;28;20032;-79
2023/12/20 01:00:14;;;;;;;11.82;1.15;;;5.50;99.90;;;;;;5080410;28;20020;-80
2023/12/20 01:02:40;;;;;;;13.77;0.20;;;5.60;99.90;;;;;;5079839;28;20020;-80
2023/12/20 01:05:07;;;;;;;8.73;0.30;;;5.60;99.90;;;;;;5062429;28;20020;-79
2023/12/20 01:07:32;;;;;;;6.93;0.17;;;5.60;99.90;;;;;;5080446;28;20028;-80
2023/12/20 01:09:58;;;;;;;8.70;0.10;;;9.20;99.90;;;;;;5061537;28;20082;-79
2023/12/20 01:12:24;;;;;;;6.32;0.45;;;5.80;99.90;;;;;;5061271;28;20031;-79
2023/12/20 01:14:50;;;;;;;12.63;0.60;;;;;;;;;;5061398;28;20182;-78
2023/12/20 01:17:16;;;;;;;7.03;0.43;;;5.80;99.90;;;;;;5061381;28;20508;-79
2023/12/20 01:19:41;;;;;;;10.45;1.60;;;6.00;99.90;;;;;;5060123;28;20106;-79
2023/12/20 01:22:07;;;;;;;6.35;0.10;;;6.10;99.90;;;;;;5078988;28;20024;-79
2023/12/20 01:24:32;;;;;;;6.65;0.25;;;6.10;99.90;;;;;;5061605;28;20493;-80
2023/12/20 01:26:58;;;;;;;6.05;0.15;;;6.10;99.90;;;;;;5061883;28;20098;-80
2023/12/20 01:29:24;;;;;;;11.60;1.33;;;6.20;99.90;;;;;;5081607;28;20047;-80
2023/12/20 01:31:50;;;;;;;11.82;0.85;;;;;;;;;;5062588;28;20024;-79
2023/12/20 01:34:16;;;;;;;10.57;0.75;;;6.20;99.90;;;;;;5080924;28;20024;-79
2023/12/20 01:36:42;;;;;;;8.75;0.15;;;6.20;99.90;;;;;;5082817;28;20484;-78
2023/12/20 01:39:08;;;;;;;8.95;0.20;;;6.20;99.90;;;;;;5081718;28;20070;-80
2023/12/20 01:41:34;;;;;;;8.52;0.13;;;6.20;99.90;;;;;;5081785;28;20028;-79
2023/12/20 01:43:59;;;;;;;8.20;1.10;;;6.20;99.90;;;;;;5082186;28;20046;-80
2023/12/20 01:46:25;;;;;;;11.95;0.85;;;6.30;99.90;;;;;;5063392;28;20027;-79
2023/12/20 01:48:52;;;;;;;5.75;0.47;;;6.20;99.90;;;;;;5062948;28;20487;-79
2023/12/20 01:51:17;;;;;;;7.40;0.77;;;6.20;99.90;;;;;;5081177;28;20021;-79
2023/12/20 01:53:43;;;;;;;8.75;0.65;;;6.20;99.90;;;;;;5080861;28;20031;-80
2023/12/20 01:56:10;;;;;;;8.27;0.98;;;6.40;99.90;;;;;;5062896;28;20020;-80
2023/12/20 01:58:46;;;;;;;12.27;0.75;;;6.40;99.90;;;;;;5061887;28;20078;-79
2023/12/20 02:01:12;;;;;;;4.55;0.30;;;6.40;99.90;;;;;;5062032;28;20028;-79
2023/12/20 02:03:38;;;;;;;16.48;2.58;;;6.40;99.90;;;;;;5080708;28;20073;-79
2023/12/20 02:06:05;;;;;;;14.55;1.10;;;6.40;99.90;;;;;;5081086;28;20020;-79
2023/12/20 02:08:31;;;;;;;15.40;1.88;;;6.40;99.90;;;;;;5081575;28;20403;-79
2023/12/20 02:10:57;;;;;;;7.43;0.30;;;6.50;99.90;;;;;;5081887;28;20024;-79
2023/12/20 02:13:22;;;;;;;14.40;0.98;;;6.60;99.90;;;;;;5062964;28;20025;-79
2023/12/20 02:15:48;;;;;;;11.25;0.38;;;6.60;99.90;;;;;;5062226;28;20020;-80
2023/12/20 02:18:16;;;;;;;10.10;0.63;;;6.60;99.90;;;;;;5061148;28;20111;-80
2023/12/20 02:20:42;;;;;;;9.90;0.45;;;6.60;99.90;;;;;;5079687;28;20024;-79
2023/12/20 02:23:07;;;;;;;10.15;0.57;;;6.60;99.90;;;;;;5081161;28;20025;-79
2023/12/20 02:25:33;;;;;;;13.65;0.75;;;6.60;99.90;;;;;;5080543;28;20029;-79
2023/12/20 02:27:58;;;;;;;13.90;0.77;;;6.60;99.90;;;;;;5079704;28;20017;-79
2023/12/20 02:30:24;;;;;;;10.63;0.65;;;6.60;99.90;;;;;;5080874;28;20028;-80
2023/12/20 02:32:51;;;;;;;11.20;0.68;;;6.60;99.90;;;;;;5079430;28;20028;-79
2023/12/20 02:35:16;;;;;;;12.70;0.50;;;6.60;99.90;;;;;;5079733;28;20597;-79
2023/12/20 02:37:42;;;;;;;12.40;0.85;;;6.70;99.90;;;;;;5079409;28;20035;-79
2023/12/20 02:40:08;;;;;;;12.25;1.63;;;6.80;99.90;;;;;;5080333;28;20035;-79
2023/12/20 02:42:33;;;;;;;19.10;0.60;;;6.70;99.90;;;;;;5061318;28;20035;-79
2023/12/20 02:44:59;;;;;;;14.73;1.20;;;6.80;99.90;;;;;;5061184;28;20025;-79
2023/12/20 02:47:24;;;;;;;8.95;1.02;;;6.80;99.90;;;;;;5062002;28;20383;-79
2023/12/20 02:49:50;;;;;;;8.27;0.40;;;6.90;99.90;;;;;;5079669;28;20043;-80
2023/12/20 02:52:15;;;;;;;14.00;0.75;;;6.90;99.90;;;;;;5061971;28;20023;-79
2023/12/20 02:54:41;;;;;;;9.60;0.73;;;;;;;;;;5061993;28;20044;-79
2023/12/20 02:57:07;;;;;;;12.10;0.85;;;6.90;99.90;;;;;;5061665;28;20021;-79
2023/12/20 02:59:33;;;;;;;13.95;0.85;;;6.90;99.90;;;;;;5078406;28;20035;-79
2023/12/20 03:01:58;;;;;;;13.13;0.88;;;7.00;99.90;;;;;;5060020;28;20016;-80
2023/12/20 03:04:24;;;;;;;12.55;0.80;;;7.10;99.90;;;;;;5062129;28;20039;-79
2023/12/20 03:06:49;;;;;;;15.43;0.82;;;7.10;99.90;;;;;;5063927;28;20112;-79
2023/12/20 03:09:15;;;;;;;18.27;1.70;;;7.10;99.90;;;;;;5083174;28;20025;-79
2023/12/20 03:11:41;;;;;;;15.52;1.00;;;7.10;99.90;;;;;;5082902;28;20024;-78
2023/12/20 03:14:06;;;;;;;11.90;0.30;;;7.10;99.90;;;;;;5083619;28;20045;-80
2023/12/20 03:16:33;;;;;;;5.57;0.35;;;7.00;99.90;;;;;;5083314;28;20025;-80
2023/12/20 03:18:58;;;;;;;12.38;1.10;;;7.10;99.90;;;;;;5082749;28;20120;-79
2023/12/20 03:21:24;;;;;;;14.45;0.65;;;7.00;99.90;;;;;;5081444;28;20056;-79
2023/12/20 03:23:50;;;;;;;9.00;0.20;;;7.10;99.90;;;;;;5062692;28;20062;-79
2023/12/20 03:26:15;;;;;;;13.15;1.38;;;7.10;99.90;;;;;;5063579;28;20032;-80
2023/12/20 03:28:41;;;;;;;21.67;2.15;;;7.00;99.90;;;;;;5065298;28;20024;-79
2023/12/20 03:31:06;;;;;;;9.10;0.90;;;7.00;99.90;;;;;;5064677;28;20080;-80
2023/12/20 03:33:32;;;;;;;9.82;1.48;;;8.60;99.90;;;;;;5063912;28;20039;-79
2023/12/20 03:35:58;;;;;;;14.35;1.45;;;7.00;99.90;;;;;;5063274;28;20074;-79
2023/12/20 03:38:23;;;;;;;8.70;0.85;;;7.00;99.90;;;;;;5063051;28;20025;-78
2023/12/20 03:40:49;;;;;;;15.70;0.75;;;7.10;99.90;;;;;;5064034;28;20047;-79
2023/12/20 03:43:15;;;;;;;13.02;0.98;;;7.00;99.90;;;;;;5082522;28;20051;-79
2023/12/20 03:45:42;;;;;;;14.82;0.82;;;7.00;99.90;;;;;;5083547;28;20028;-79
2023/12/20 03:48:08;;;;;;;10.18;1.38;;;6.90;99.90;;;;;;5082913;28;20028;-80
2023/12/20 03:50:34;;;;;;;13.45;1.13;;;6.90;99.90;;;;;;5082962;28;20012;-79
2023/12/20 03:53:00;;;;;;;11.18;0.63;;;6.90;99.90;;;;;;5080497;28;20028;-78
2023/12/20 03:55:25;;;;;;;14.75;1.58;;;7.00;99.90;;;;;;5079747;28;20086;-79
2023/12/20 03:57:51;;;;;;;10.15;0.35;;;6.90;99.90;;;;;;5079473;28;20017;-79
2023/12/20 04:00:16;;;;;;;11.27;1.13;;;7.00;99.90;;;;;;5079687;28;20365;-78
2023/12/20 04:02:42;;;;;;;18.75;1.08;;;7.00;99.90;;;;;;5061572;28;20021;-78
2023/12/20 04:05:09;;;;;;;11.18;1.10;;;7.10;99.90;;;;;;5079401;28;20032;-78
2023/12/20 04:07:36;;;;;;;11.15;0.52;;;7.10;99.90;;;;;;5080276;28;20052;-79
2023/12/20 04:10:02;;;;;;;9.80;0.30;;;7.10;99.90;;;;;;5079433;28;20073;-78
2023/12/20 04:12:28;;;;;;;10.77;0.47;;;7.10;99.90;;;;;;5079012;28;20041;-78
2023/12/20 04:14:53;;;;;;;10.93;1.33;;;7.20;99.90;;;;;;5061432;28;20025;-78
2023/12/20 04:17:22;;;;;;;11.05;0.82;;;8.30;99.90;;;;;;5061951;28;20016;-79
2023/12/20 04:19:51;;;;;;;22.65;2.03;;;7.10;99.90;;;;;;5079405;28;20048;-78
2023/12/20 04:22:18;;;;;;;4.30;0.00;;;7.10;99.90;;;;;;5060796;28;20051;-79
2023/12/20 04:24:44;;;;;;;14.32;1.17;;;7.20;99.90;;;;;;5062833;28;20020;-79
2023/12/20 04:27:10;;;;;;;9.55;0.93;;;7.20;99.90;;;;;;5082277;28;20025;-79
2023/12/20 04:29:36;;;;;;;11.65;0.20;;;7.20;99.90;;;;;;5063310;28;20074;-79
2023/12/20 04:32:01;;;;;;;12.75;0.82;;;7.20;99.90;;;;;;5061066;28;20021;-80
2023/12/20 04:34:27;;;;;;;15.52;0.85;;;7.30;99.90;;;;;;5079967;28;20039;-78
2023/12/20 04:36:53;;;;;;;15.93;1.77;;;7.30;99.90;;;;;;5081273;28;20076;-79
2023/12/20 04:39:19;;;;;;;11.75;1.00;;;7.30;99.90;;;;;;5082219;28;20027;-79
2023/12/20 04:41:44;;;;;;;9.85;0.60;;;7.30;99.90;;;;;;5082315;28;20028;-79
2023/12/20 04:44:10;;;;;;;11.60;0.93;;;7.40;99.90;;;;;;5082885;28;20040;-80
2023/12/20 04:46:35;;;;;;;14.55;1.08;;;7.30;99.90;;;;;;5063606;28;20016;-79
2023/12/20 04:49:01;;;;;;;11.18;0.30;;;7.40;99.90;;;;;;5063861;28;20025;-80
2023/12/20 04:51:27;;;;;;;15.88;0.77;;;7.30;99.90;;;;;;5080823;28;20029;-80
2023/12/20 04:53:52;;;;;;;10.13;0.95;;;7.40;99.90;;;;;;5061315;28;20480;-79
2023/12/20 04:56:18;;;;;;;13.45;0.75;;;7.40;99.90;;;;;;5060804;28;20023;-79
2023/12/20 04:58:43;;;;;;;11.13;0.45;;;7.40;99.90;;;;;;5062364;28;20017;-80
2023/12/20 05:01:12;;;;;;;10.32;0.82;;;7.50;99.90;;;;;;5064523;28;20442;-80
2023/12/20 05:03:38;;;;;;;7.72;0.30;;;7.40;99.90;;;;;;5064094;28;20024;-79
2023/12/20 05:06:03;;;;;;;12.07;0.65;;;7.40;99.90;;;;;;5080690;28;20025;-79
2023/12/20 05:08:29;;;;;;;12.52;1.55;;;7.40;99.90;;;;;;5062336;28;20082;-80
2023/12/20 05:10:55;;;;;;;11.48;0.73;;;7.40;99.90;;;;;;5062374;28;20464;-79
2023/12/20 05:13:21;;;;;;;10.85;0.73;;;7.30;99.90;;;;;;5081553;28;20044;-80
2023/12/20 05:15:46;;;;;;;7.88;0.63;;;7.30;99.90;;;;;;5081274;28;20103;-79
2023/12/20 05:18:12;;;;;;;8.57;0.52;;;7.30;99.90;;;;;;5080856;28;20074;-80
2023/12/20 05:20:38;;;;;;;13.02;2.05;;;7.40;99.90;;;;;;5078720;28;20099;-79
2023/12/20 05:23:04;;;;;;;9.90;0.45;;;7.50;99.90;;;;;;5061955;28;20037;-79
2023/12/20 05:25:29;;;;;;;15.43;1.38;;;7.40;99.90;;;;;;5061775;28;20021;-79
2023/12/20 05:27:56;;;;;;;10.27;1.50;;;7.40;99.90;;;;;;5079308;28;20017;-80
2023/12/20 05:30:21;;;;;;;8.90;1.77;;;7.30;99.90;;;;;;5063436;28;20020;-80
2023/12/20 05:32:47;;;;;;;11.60;1.08;;;7.30;99.90;;;;;;5063945;28;20012;-80
2023/12/20 05:35:13;;;;;;;18.02;0.88;;;7.40;99.90;;;;;;5082892;28;20025;-79
2023/12/20 05:37:38;;;;;;;12.27;0.68;;;7.40;99.90;;;;;;5064197;28;20020;-79
2023/12/20 05:40:05;;;;;;;12.40;1.05;;;7.40;99.90;;;;;;5082816;28;20455;-80
2023/12/20 05:42:30;;;;;;;12.73;0.90;;;7.30;99.90;;;;;;5083182;28;20063;-80
2023/12/20 05:44:56;;;;;;;11.25;2.72;;;7.30;99.90;;;;;;5081812;28;20029;-80
2023/12/20 05:47:22;;;;;;;10.90;1.27;;;7.30;99.90;;;;;;5080333;28;20033;-79
2023/12/20 05:49:47;;;;;;;15.85;1.02;;;7.30;99.90;;;;;;5063325;28;20154;-80
2023/12/20 05:52:13;;;;;;;20.88;1.63;;;7.40;99.90;;;;;;5079836;28;20027;-78
2023/12/20 05:54:38;;;;;;;11.80;0.88;;;7.40;99.90;;;;;;5059838;28;20373;-79
2023/12/20 05:57:04;;;;;;;13.57;1.20;;;8.10;99.90;;;;;;5061845;28;20372;-79
2023/12/20 05:59:30;;;;;;;14.50;0.55;;;7.40;99.90;;;;;;5080683;28;20052;-80
2023/12/20 06:01:55;;;;;;;12.35;0.63;;;7.40;99.90;;;;;;5080150;28;20037;-79
2023/12/20 06:04:21;;;;;;;15.20;0.90;;;7.50;99.90;;;;;;5062912;28;20024;-80
2023/12/20 06:06:47;;;;;;;7.20;0.10;;;7.50;99.90;;;;;;5061131;28;20028;-79
2023/12/20 06:09:13;;;;;;;15.27;0.38;;;7.50;99.90;;;;;;5062452;28;20025;-79
2023/12/20 06:11:38;;;;;;;9.25;0.60;;;7.50;99.90;;;;;;5062706;28;20020;-80
2023/12/20 06:14:04;;;;;;;8.13;1.23;;;7.60;99.90;;;;;;5081726;28;20455;-80
2023/12/20 06:16:30;;;;;;;20.20;1.55;;;7.50;99.90;;;;;;5063228;28;20013;-80
2023/12/20 06:18:55;;;;;;;16.10;0.57;;;7.50;99.90;;;;;;5064840;28;20017;-79
2023/12/20 06:21:21;;;;;;;16.30;1.40;;;7.50;99.90;;;;;;5082578;28;20021;-80
2023/12/20 06:23:47;;;;;;;15.70;1.10;;;7.50;99.90;;;;;;5081350;28;20063;-79
2023/12/20 06:26:12;;;;;;;7.93;1.15;;;7.60;99.90;;;;;;5082655;28;20037;-79
2023/12/20 06:28:38;;;;;;;9.73;0.90;;;7.60;99.90;;;;;;5084362;28;20032;-80
2023/12/20 06:31:04;;;;;;;4.85;0.35;;;7.60;99.90;;;;;;5084436;28;20096;-80
2023/12/20 06:33:30;;;;;;;11.57;0.65;;;7.60;99.90;;;;;;5084065;28;20037;-79
2023/12/20 06:35:57;;;;;;;14.95;1.17;;;7.60;99.90;;;;;;5082028;28;20013;-79
2023/12/20 06:38:22;;;;;;;11.45;0.57;;;7.70;99.90;;;;;;5067154;28;20045;-79
2023/12/20 06:40:48;;;;;;;20.42;1.88;;;7.70;99.90;;;;;;5068270;28;20016;-80
2023/12/20 06:43:14;;;;;;;11.98;1.13;;;7.90;99.90;;;;;;5067329;28;20016;-79
2023/12/20 06:45:40;;;;;;;21.10;1.30;;;7.70;99.90;;;;;;5067578;28;20042;-80
2023/12/20 06:48:06;;;;;;;26.25;1.58;;;7.70;99.90;;;;;;5085821;28;20013;-79
2023/12/20 06:50:32;;;;;;;10.32;0.60;;;7.70;99.90;;;;;;5085760;28;20092;-80
2023/12/20 06:52:57;;;;;;;9.63;0.28;;;7.70;99.90;;;;;;5084783;28;20090;-80
2023/12/20 06:55:23;;;;;;;13.18;0.68;;;7.70;99.90;;;;;;5084581;28;20028;-79
2023/12/20 06:57:48;;;;;;;12.23;0.60;;;7.70;99.90;;;;;;5063784;28;20104;-79
2023/12/20 07:00:15;;;;;;;8.25;0.50;;;7.80;99.90;;;;;;5083033;28;20104;-80
2023/12/20 07:02:40;;;;;;;16.75;0.90;;;7.80;99.90;;;;;;5065416;28;20066;-80
2023/12/20 07:05:06;;;;;;;10.65;0.90;;;7.80;99.90;;;;;;5081973;28;20037;-80
2023/12/20 07:07:32;;;;;;;12.32;0.63;;;7.80;99.90;;;;;;5063914;28;20026;-82
2023/12/20 07:09:58;;;;;;;14.88;1.23;;;7.80;99.90;;;;;;5063899;28;20462;-80
2023/12/20 07:12:23;;;;;;;6.90;1.13;;;7.70;99.90;;;;;;5063798;28;20407;-79
2023/12/20 07:14:49;;;;;;;18.55;1.15;;;7.80;99.90;;;;;;5063730;28;20016;-80
2023/12/20 07:17:15;;;;;;;9.32;0.82;;;7.80;99.90;;;;;;5064966;28;20024;-80
2023/12/20 07:19:41;;;;;;;17.10;0.60;;;7.80;99.90;;;;;;5062251;28;20025;-79
2023/12/20 07:22:07;;;;;;;16.00;1.20;;;7.80;99.90;;;;;;5081203;28;20103;-80
2023/12/20 07:24:33;;;;;;;12.45;0.43;;;7.90;99.90;;;;;;5063954;28;20471;-79
2023/12/20 07:27:02;;;;;;;16.73;1.88;;;10.80;99.90;;;;;;5080759;28;20033;-79
2023/12/20 07:29:28;;;;;;;13.57;1.52;;;7.90;99.90;;;;;;5062648;28;20446;-80
2023/12/20 07:31:53;;;;;;;10.18;1.08;;;7.80;99.90;;;;;;5063913;28;20046;-79
2023/12/20 07:34:21;;;;;;;9.10;0.57;;;7.80;99.90;;;;;;5081139;28;20032;-80
2023/12/20 07:36:47;;;;;;;12.35;0.55;;;7.90;99.90;;;;;;5081981;28;20027;-81
2023/12/20 07:39:13;;;;;;;14.00;1.02;;;7.80;99.90;;;;;;5082134;28;20479;-81
2023/12/20 07:41:39;;;;;;;13.30;0.63;;;10.70;99.90;;;;;;5063629;28;20023;-81
2023/12/20 07:44:06;;;;;;;15.40;1.58;;;7.80;99.90;;;;;;5063006;28;20032;-80
2023/12/20 07:46:34;;;;;;;13.02;1.50;;;7.80;99.90;;;;;;5062767;28;20078;-79
2023/12/20 07:49:00;;;;;;;11.40;1.02;;;7.90;99.90;;;;;;5060939;28;20033;-80
2023/12/20 07:51:26;;;;;;;6.50;0.98;;;7.90;99.90;;;;;;5063475;28;20383;-80
2023/12/20 07:53:52;;;;;;;10.00;0.85;;;;;;;;;;5081457;28;20017;-80
2023/12/20 07:56:19;;;;;;;11.77;0.50;;;7.90;99.90;;;;;;5067775;28;20080;-81
2023/12/20 07:58:45;;;;;;;13.60;1.13;;;8.00;99.90;;;;;;5064815;28;20359;-79
2023/12/20 08:01:12;;;;;;;15.98;0.32;;;8.00;99.90;;;;;;5063217;28;20025;-80
2023/12/20 08:03:38;;;;;;;10.20;0.50;;;7.90;99.90;;;;;;5067713;28;20032;-80
2023/12/20 08:06:04;;;;;;;6.65;0.32;;;8.00;99.90;;;;;;5084323;28;20104;-80
2023/12/20 08:08:30;;;;;;;11.90;0.88;;;8.00;99.90;;;;;;5065517;28;20028;-79
2023/12/20 08:10:59;;;;;;;15.50;1.63;;;8.00;99.90;;;;;;5083586;28;20056;-80
2023/12/20 08:13:25;;;;;;;18.05;1.88;;;8.00;99.90;;;;;;5081284;28;20028;-80
2023/12/20 08:15:55;;;;;;;22.08;1.02;;;8.00;99.90;;;;;;5083330;28;20024;-81
2023/12/20 08:18:21;;;;;;;11.77;1.42;;;8.00;99.90;;;;;;5066199;28;20047;-81
2023/12/20 08:20:48;;;;;;;16.20;0.45;;;8.30;99.90;;;;;;5066863;28;20024;-81
2023/12/20 08:23:13;;;;;;;12.30;1.10;;;8.00;99.90;;;;;;5066958;28;20012;-80
2023/12/20 08:25:39;;;;;;;6.45;0.22;;;8.00;99.90;;;;;;5063445;28;20027;-80
2023/12/20 08:28:05;;;;;;;11.57;1.40;;;8.10;99.90;;;;;;5064755;28;20028;-80
2023/12/20 08:30:32;;;;;;;21.02;0.63;;;8.10;99.90;;;;;;5081155;28;20031;-80
2023/12/20 08:33:01;;;;;;;10.52;0.88;;;8.10;99.90;;;;;;5061209;28;20024;-80
2023/12/20 08:35:26;;;;;;;15.65;1.60;;;8.00;99.90;;;;;;5080761;28;20031;-80
2023/12/20 08:37:52;;;;;;;14.07;0.77;;;8.00;99.90;;;;;;5063310;28;20025;-79
2023/12/20 08:40:17;;;;;;;9.07;0.65;;;8.10;99.90;;;;;;5063127;28;20020;-80
2023/12/20 08:42:43;;;;;;;8.60;0.70;;;8.00;99.90;;;;;;5061875;28;20419;-80
2023/12/20 08:45:09;;;;;;;17.83;0.95;;;8.20;99.90;;;;;;5062257;28;20025;-80
2023/12/20 08:47:36;;;;;;;12.60;0.45;;;;;;;;;;5062380;28;20433;-80
2023/12/20 08:50:02;;;;;;;16.83;1.95;;;8.10;99.90;;;;;;5061686;28;20479;-80
2023/12/20 08:52:29;;;;;;;11.50;0.32;;;;;;;;;;5061238;28;20027;-80
2023/12/20 08:54:55;;;;;;;15.77;1.95;;;8.10;99.90;;;;;;5061860;28;20036;-80
2023/12/20 08:57:25;;;;;;;13.30;0.57;;;8.10;99.90;;;;;;5061652;28;20028;-80
2023/12/20 08:59:51;;;;;;;6.10;1.00;;;8.20;99.90;;;;;;5059531;28;20052;-79
2023/12/20 09:02:17;;;;;;;18.00;1.42;;;8.20;99.90;;;;;;5059591;28;20017;-80
2023/12/20 09:04:43;;;;;;;9.70;0.63;;;8.20;99.90;;;;;;5061541;28;20484;-80
2023/12/20 09:07:30;;;;;;;18.88;2.72;;;8.20;99.90;;;;;;5079111;28;20027;-79
2023/12/20 09:09:55;;;;;;;14.23;1.85;;;8.20;99.90;;;;;;5061541;28;20050;-79
2023/12/20 09:12:21;;;;;;;14.77;0.95;;;8.20;99.90;;;;;;5077722;28;20044;-79
2023/12/20 09:14:48;;;;;;;18.52;1.15;;;8.30;99.90;;;;;;5077395;28;20059;-80
2023/12/20 09:17:14;;;;;;;10.00;0.68;;;8.30;99.90;;;;;;5078538;28;20031;-80
2023/12/20 09:19:40;;;;;;;6.45;0.70;;;8.30;99.90;;;;;;5062010;28;20017;-79
2023/12/20 09:22:06;;;;;;;10.90;1.25;;;8.20;99.90;;;;;;5061283;28;20072;-80
2023/12/20 09:24:32;;;;;;;8.13;1.27;;;8.40;99.90;;;;;;5078470;28;20039;-79
2023/12/20 09:26:57;;;;;;;11.02;0.50;;;8.40;99.90;;;;;;5077021;28;20020;-78
2023/12/20 09:29:24;;;;;;;8.27;0.50;;;8.50;99.90;;;;;;5059681;28;20028;-79
2023/12/20 09:31:50;;;;;;;9.30;1.08;;;8.50;99.90;;;;;;5059769;28;20029;-79
2023/12/20 09:34:17;;;;;;;16.08;1.05;;;;;;;;;;5061819;28;20377;-79
2023/12/20 09:36:46;;;;;;;8.55;0.43;;;8.50;99.90;;;;;;5079968;28;20020;-80
2023/12/20 09:39:20;;;;;;;7.45;0.77;;;8.60;99.90;;;;;;5078520;28;20024;-81
2023/12/20 09:41:51;;;;;;;13.00;1.52;;;8.60;99.90;;;;;;5079152;28;20048;-79
2023/12/20 09:44:20;;;;;;;12.77;0.60;;;8.60;99.90;;;;;;5076706;28;20032;-79
2023/12/20 09:46:50;;;;;;;12.52;1.83;;;8.60;99.90;;;;;;5076264;28;20028;-79
2023/12/20 09:49:18;;;;;;;14.45;0.73;;;8.70;99.90;;;;;;5078620;28;20051;-80
2023/12/20 09:51:46;;;;;;;4.78;0.60;;;8.70;99.90;;;;;;5061052;28;20021;-80
2023/12/20 09:54:15;;;;;;;13.77;2.33;;;8.70;99.90;;;;;;5061675;28;20556;-79
2023/12/20 09:56:40;;;;;;;15.07;0.95;;;8.70;99.90;;;;;;5079337;28;20457;-80
2023/12/20 09:59:06;;;;;;;8.68;0.55;;;8.80;99.90;;;;;;5079717;28;20027;-80
2023/12/20 10:01:34;;;;;;;14.82;0.63;;;8.80;99.90;;;;;;5079657;28;20016;-79
2023/12/20 10:04:00;;;;;;;11.88;1.05;;;8.80;99.90;;;;;;5079396;28;20020;-80
2023/12/20 10:06:26;;;;;;;10.65;1.88;;;8.80;99.90;;;;;;5079601;28;20035;-80
2023/12/20 10:08:53;;;;;;;13.60;1.20;;;8.90;99.90;;;;;;5080113;28;20021;-81
2023/12/20 10:11:19;;;;;;;5.80;0.43;;;8.90;99.90;;;;;;5059592;28;20025;-79
2023/12/20 10:13:48;;;;;;;8.38;0.73;;;8.90;99.90;;;;;;5079565;28;20035;-80
2023/12/20 10:16:13;;;;;;;8.07;0.20;;;8.90;99.90;;;;;;5079314;28;20017;-79
2023/12/20 10:18:39;;;;;;;6.82;0.40;;;8.80;99.90;;;;;;5060830;28;20023;-79
2023/12/20 10:21:06;;;;;;;18.92;1.15;;;9.00;99.90;;;;;;5062391;28;20021;-80
2023/12/20 10:23:32;;;;;;;8.95;0.57;;;9.00;99.90;;;;;;5080479;28;20024;-80
2023/12/20 10:26:01;;;;;;;8.98;0.40;;;9.00;99.90;;;;;;5062943;28;20017;-80
2023/12/20 10:28:32;;;;;;;8.75;0.40;;;9.00;99.90;;;;;;5080512;28;20471;-80
2023/12/20 10:30:58;;;;;;;15.07;0.82;;;12.20;99.90;;;;;;5079675;28;20047;-80
2023/12/20 10:33:28;;;;;;;13.73;0.75;;;9.00;99.90;;;;;;5080566;28;20024;-80
2023/12/20 10:35:55;;;;;;;16.75;1.20;;;9.00;99.90;;;;;;5062082;28;20017;-81
2023/12/20 10:38:24;;;;;;;9.38;0.73;;;9.10;99.90;;;;;;5080712;28;20488;-80
2023/12/20 10:40:54;;;;;;;14.48;1.15;;;9.10;99.90;;;;;;5062948;28;20023;-80
2023/12/20 10:43:20;;;;;;;12.27;0.73;;;9.10;99.90;;;;;;5078894;28;20033;-80
2023/12/20 10:45:46;;;;;;;9.48;0.88;;;9.10;99.90;;;;;;5060924;28;20021;-80
2023/12/20 10:48:16;;;;;;;15.35;1.05;;;9.10;99.90;;;;;;5080299;28;20476;-80
2023/12/20 10:50:42;;;;;;;12.48;1.48;;;9.10;99.90;;;;;;5061037;28;20025;-79
2023/12/20 10:53:08;;;;;;;14.70;1.70;;;9.20;99.90;;;;;;5078959;28;20023;-79
2023/12/20 10:55:34;;;;;;;16.85;0.98;;;9.20;99.90;;;;;;5061747;28;20032;-80
2023/12/20 10:58:07;;;;;;;9.32;0.57;;;9.80;99.90;;;;;;5079652;28;20017;-81
2023/12/20 11:00:38;;;;;;;8.18;0.40;;;9.40;99.90;;;;;;5081741;28;20024;-78
2023/12/20 11:03:05;;;;;;;13.93;1.55;;;9.40;99.90;;;;;;5068470;28;20048;-79
2023/12/20 11:05:43;;;;;;;10.95;0.63;;;9.40;99.90;;;;;;5063191;28;20028;-81
2023/12/20 11:08:24;;;;;;;10.77;0.52;;;9.40;99.90;;;;;;5079704;28;20029;-80
2023/12/20 11:11:02;;;;;;;8.52;1.38;;;9.50;99.90;;;;;;5061231;28;20030;-80
2023/12/20 11:13:44;;;;;;;10.80;1.10;;;9.50;99.90;;;;;;5060875;28;20029;-80
2023/12/20 11:16:10;;;;;;;13.50;1.20;;;9.60;99.90;;;;;;5078649;28;20013;-80
2023/12/20 11:18:36;;;;;;;11.20;0.90;;;9.70;99.90;;;;;;5061733;28;20028;-80
2023/12/20 11:21:04;;;;;;;5.40;0.17;;;9.80;99.90;;;;;;5080856;28;20024;-81
2023/12/20 11:23:30;;;;;;;12.55;1.35;;;9.80;99.90;;;;;;5063481;28;20476;-80
2023/12/20 11:25:59;;;;;;;7.90;1.60;;;9.80;99.90;;;;;;5066221;28;20017;-80
2023/12/20 11:28:26;;;;;;;;;;;9.70;99.90;;;;;;5066941;28;20020;-81
2023/12/20 11:30:52;;;;;;;8.98;0.30;;;9.70;99.90;;;;;;5085021;28;19968;-81
2023/12/20 11:33:22;;;;;;;15.85;0.22;;;9.70;99.90;;;;;;5066594;28;20124;-81
2023/12/20 11:35:48;;;;;;;10.00;0.63;;;9.60;99.90;;;;;;5066607;28;20020;-80
2023/12/20 11:38:14;;;;;;;7.97;0.57;;;9.70;99.90;;;;;;5084054;28;20476;-80
2023/12/20 11:40:42;;;;;;;8.32;0.38;;;9.70;99.90;;;;;;5085235;28;20017;-80
2023/12/20 11:43:08;;;;;;;15.98;2.25;;;9.60;99.90;;;;;;5067173;28;20043;-80
2023/12/20 11:45:37;;;;;;;10.98;0.30;;;9.70;99.90;;;;;;5085176;28;20080;-79
2023/12/20 11:48:03;;;;;;;16.38;0.70;;;9.50;99.90;;;;;;5066865;28;20025;-80
2023/12/20 11:50:30;;;;;;;19.23;1.13;;;9.60;99.90;;;;;;5084542;28;20024;-81
2023/12/20 11:52:56;;;;;;;9.15;0.77;;;9.60;99.90;;;;;;5067554;28;20083;-82
2023/12/20 11:55:23;;;;;;;5.13;0.43;;;9.60;99.90;;;;;;5066614;28;20109;-81
2023/12/20 11:57:50;;;;;;;11.10;0.93;;;9.60;99.90;;;;;;5065859;28;20395;-80
2023/12/20 12:00:17;;;;;;;7.60;0.68;;;9.70;99.90;;;;;;5065572;28;20016;-80
2023/12/20 12:02:43;;;;;;;8.25;0.65;;;9.70;99.90;;;;;;5065268;28;20020;-80
2023/12/20 12:05:09;;;;;;;9.63;0.15;;;9.70;99.90;;;;;;5083643;28;20077;-80
2023/12/20 12:07:35;;;;;;;10.95;1.17;;;9.70;99.90;;;;;;5065761;28;20388;-80
2023/12/20 12:10:03;;;;;;;9.40;0.75;;;;;;;;;;5084247;28;20055;-80
2023/12/20 12:12:30;;;;;;;6.15;0.30;;;9.70;99.90;;;;;;5084049;28;20052;-80
2023/12/20 12:14:57;;;;;;;5.82;1.10;;;9.70;99.90;;;;;;5065267;28;20044;-80
2023/12/20 12:17:23;;;;;;;8.85;0.20;;;9.70;99.90;;;;;;5083311;28;20479;-80
2023/12/20 12:19:48;;;;;;;16.88;0.95;;;9.70;99.90;;;;;;5064467;28;20024;-80
2023/12/20 12:22:16;;;;;;;10.63;1.08;;;9.70;99.90;;;;;;5064807;28;20043;-80
2023/12/20 12:24:49;;;;;;;10.00;0.35;;;9.70;99.90;;;;;;5083109;28;20016;-80
2023/12/20 12:27:15;;;;;;;10.00;1.23;;;9.70;99.90;;;;;;5065361;28;20032;-80
2023/12/20 12:29:59;;;;;;;13.10;0.70;;;9.60;99.90;;;;;;5065474;28;20063;-81
2023/12/20 12:32:25;;;;;;;16.35;0.85;;;9.80;99.90;;;;;;5065639;28;20132;-80
2023/12/20 12:34:50;;;;;;;12.73;0.75;;;9.80;99.90;;;;;;5064550;28;20064;-79
2023/12/20 12:37:16;;;;;;;11.48;0.68;;;9.80;99.90;;;;;;5065845;28;20042;-79
2023/12/20 12:39:41;;;;;;;14.68;0.40;;;9.80;99.90;;;;;;5064640;28;20028;-80
2023/12/20 12:42:07;;;;;;;14.00;0.70;;;9.70;99.90;;;;;;5080632;28;20082;-79
2023/12/20 12:44:32;;;;;;;7.70;0.80;;;9.70;99.90;;;;;;5061716;28;20368;-79
2023/12/20 12:46:58;;;;;;;8.90;1.10;;;9.60;99.90;;;;;;5079741;28;20017;-80
2023/12/20 12:49:23;;;;;;;7.63;0.38;;;9.70;99.90;;;;;;5064336;28;20508;-80